sensor_id;sensor_type;location;lat;lon;timestamp;P1;durP1;ratioP1;P2;durP2;ratioP2
11771;SDS011;12556;55.748;13.194;2023-04-06T00:00:47;3.73;;;2.90;;
11771;SDS011;12556;55.748;13.194;2023-04-06T00:03:14;3.23;;;2.40;;
11771;SDS011;12556;55.748;13.194;2023-04-06T00:05:41;2.93;;;2.57;;
11771;SDS011;12556;55.748;13.194;2023-04-06T00:08:08;2.57;;;2.30;;
11771;SDS011;12556;55.748;13.194;2023-04-06T00:10:37;6.60;;;2.47;;
11771;SDS011;12556;55.748;13.194;2023-04-06T00:13:05;3.23;;;2.83;;
11771;SDS011;12556;55.748;13.194;2023-04-06T00:15:32;4.83;;;2.80;;
11771;SDS011;12556;55.748;13.194;2023-04-06T00:18:00;3.60;;;2.67;;
11771;SDS011;12556;55.748;13.194;2023-04-06T00:20:27;2.70;;;2.50;;
11771;SDS011;12556;55.748;13.194;2023-04-06T00:22:54;2.97;;;2.50;;
11771;SDS011;12556;55.748;13.194;2023-04-06T00:25:21;2.83;;;2.53;;
11771;SDS011;12556;55.748;13.194;2023-04-06T00:27:49;2.83;;;2.33;;
11771;SDS011;12556;55.748;13.194;2023-04-06T00:30:16;3.63;;;2.20;;
11771;SDS011;12556;55.748;13.194;2023-04-06T00:32:43;3.80;;;2.77;;
11771;SDS011;12556;55.748;13.194;2023-04-06T00:35:10;3.53;;;2.57;;
11771;SDS011;12556;55.748;13.194;2023-04-06T00:37:37;3.27;;;2.70;;
11771;SDS011;12556;55.748;13.194;2023-04-06T00:40:04;3.10;;;2.83;;
11771;SDS011;12556;55.748;13.194;2023-04-06T00:42:32;3.07;;;2.77;;
11771;SDS011;12556;55.748;13.194;2023-04-06T00:45:01;4.57;;;3.10;;
11771;SDS011;12556;55.748;13.194;2023-04-06T00:47:28;3.60;;;3.30;;
11771;SDS011;12556;55.748;13.194;2023-04-06T00:49:55;3.90;;;3.30;;
11771;SDS011;12556;55.748;13.194;2023-04-06T00:52:23;5.33;;;4.03;;
11771;SDS011;12556;55.748;13.194;2023-04-06T00:54:50;4.20;;;3.77;;
11771;SDS011;12556;55.748;13.194;2023-04-06T00:57:17;5.93;;;4.23;;
11771;SDS011;12556;55.748;13.194;2023-04-06T00:59:44;4.17;;;3.77;;
11771;SDS011;12556;55.748;13.194;2023-04-06T01:02:13;6.03;;;4.20;;
11771;SDS011;12556;55.748;13.194;2023-04-06T01:04:40;4.77;;;3.87;;
11771;SDS011;12556;55.748;13.194;2023-04-06T01:07:07;5.13;;;4.00;;
11771;SDS011;12556;55.748;13.194;2023-04-06T01:09:34;6.63;;;4.73;;
11771;SDS011;12556;55.748;13.194;2023-04-06T01:12:01;7.20;;;4.33;;
11771;SDS011;12556;55.748;13.194;2023-04-06T01:14:29;5.37;;;3.93;;
11771;SDS011;12556;55.748;13.194;2023-04-06T01:16:57;4.03;;;2.93;;
11771;SDS011;12556;55.748;13.194;2023-04-06T01:19:27;5.90;;;3.50;;
11771;SDS011;12556;55.748;13.194;2023-04-06T01:21:54;6.47;;;3.30;;
11771;SDS011;12556;55.748;13.194;2023-04-06T01:24:23;5.10;;;3.30;;
11771;SDS011;12556;55.748;13.194;2023-04-06T01:26:49;4.80;;;3.00;;
11771;SDS011;12556;55.748;13.194;2023-04-06T01:29:16;4.40;;;3.87;;
11771;SDS011;12556;55.748;13.194;2023-04-06T01:31:43;4.60;;;3.50;;
11771;SDS011;12556;55.748;13.194;2023-04-06T01:34:10;7.13;;;4.23;;
11771;SDS011;12556;55.748;13.194;2023-04-06T01:36:37;5.83;;;4.43;;
11771;SDS011;12556;55.748;13.194;2023-04-06T01:39:05;9.70;;;5.03;;
11771;SDS011;12556;55.748;13.194;2023-04-06T01:41:33;7.57;;;5.40;;
11771;SDS011;12556;55.748;13.194;2023-04-06T01:44:00;10.23;;;5.77;;
11771;SDS011;12556;55.748;13.194;2023-04-06T01:46:27;8.77;;;6.53;;
11771;SDS011;12556;55.748;13.194;2023-04-06T01:48:54;8.70;;;7.23;;
11771;SDS011;12556;55.748;13.194;2023-04-06T01:51:21;12.13;;;7.93;;
11771;SDS011;12556;55.748;13.194;2023-04-06T01:53:49;11.37;;;7.97;;
11771;SDS011;12556;55.748;13.194;2023-04-06T01:56:16;11.87;;;8.13;;
11771;SDS011;12556;55.748;13.194;2023-04-06T01:58:44;10.13;;;7.93;;
11771;SDS011;12556;55.748;13.194;2023-04-06T02:01:11;10.23;;;8.37;;
11771;SDS011;12556;55.748;13.194;2023-04-06T02:03:38;10.13;;;8.03;;
11771;SDS011;12556;55.748;13.194;2023-04-06T02:06:05;8.90;;;7.40;;
11771;SDS011;12556;55.748;13.194;2023-04-06T02:08:32;12.13;;;7.83;;
11771;SDS011;12556;55.748;13.194;2023-04-06T02:10:59;8.83;;;7.93;;
11771;SDS011;12556;55.748;13.194;2023-04-06T02:13:26;9.33;;;7.20;;
11771;SDS011;12556;55.748;13.194;2023-04-06T02:15:54;8.67;;;7.00;;
11771;SDS011;12556;55.748;13.194;2023-04-06T02:18:22;9.47;;;6.47;;
11771;SDS011;12556;55.748;13.194;2023-04-06T02:20:49;7.37;;;5.77;;
11771;SDS011;12556;55.748;13.194;2023-04-06T02:23:16;8.47;;;5.50;;
11771;SDS011;12556;55.748;13.194;2023-04-06T02:25:43;8.67;;;6.33;;
11771;SDS011;12556;55.748;13.194;2023-04-06T02:28:10;10.93;;;5.10;;
11771;SDS011;12556;55.748;13.194;2023-04-06T02:30:36;7.00;;;5.27;;
11771;SDS011;12556;55.748;13.194;2023-04-06T02:33:05;7.70;;;5.10;;
11771;SDS011;12556;55.748;13.194;2023-04-06T02:35:32;7.10;;;5.10;;
11771;SDS011;12556;55.748;13.194;2023-04-06T02:37:58;4.67;;;3.50;;
11771;SDS011;12556;55.748;13.194;2023-04-06T02:40:25;5.20;;;4.40;;
11771;SDS011;12556;55.748;13.194;2023-04-06T02:42:52;9.30;;;5.37;;
11771;SDS011;12556;55.748;13.194;2023-04-06T02:45:19;5.63;;;5.00;;
11771;SDS011;12556;55.748;13.194;2023-04-06T02:47:46;5.03;;;4.03;;
11771;SDS011;12556;55.748;13.194;2023-04-06T02:50:14;7.43;;;4.60;;
11771;SDS011;12556;55.748;13.194;2023-04-06T02:52:41;7.37;;;4.33;;
11771;SDS011;12556;55.748;13.194;2023-04-06T02:55:08;8.97;;;4.63;;
11771;SDS011;12556;55.748;13.194;2023-04-06T02:57:36;5.40;;;4.30;;
11771;SDS011;12556;55.748;13.194;2023-04-06T03:00:03;4.47;;;3.50;;
11771;SDS011;12556;55.748;13.194;2023-04-06T03:02:31;4.97;;;3.37;;
11771;SDS011;12556;55.748;13.194;2023-04-06T03:04:58;7.17;;;3.73;;
11771;SDS011;12556;55.748;13.194;2023-04-06T03:07:26;4.07;;;3.67;;
11771;SDS011;12556;55.748;13.194;2023-04-06T03:09:53;3.97;;;3.20;;
11771;SDS011;12556;55.748;13.194;2023-04-06T03:12:20;5.53;;;3.67;;
11771;SDS011;12556;55.748;13.194;2023-04-06T03:14:47;5.87;;;3.43;;
11771;SDS011;12556;55.748;13.194;2023-04-06T03:17:14;5.63;;;3.90;;
11771;SDS011;12556;55.748;13.194;2023-04-06T03:19:41;4.83;;;4.00;;
11771;SDS011;12556;55.748;13.194;2023-04-06T03:22:08;6.87;;;3.40;;
11771;SDS011;12556;55.748;13.194;2023-04-06T03:24:36;6.30;;;3.40;;
11771;SDS011;12556;55.748;13.194;2023-04-06T03:27:03;4.03;;;3.23;;
11771;SDS011;12556;55.748;13.194;2023-04-06T03:29:31;4.37;;;3.97;;
11771;SDS011;12556;55.748;13.194;2023-04-06T03:31:58;4.83;;;3.60;;
11771;SDS011;12556;55.748;13.194;2023-04-06T03:34:25;4.43;;;3.10;;
11771;SDS011;12556;55.748;13.194;2023-04-06T03:36:52;3.87;;;3.47;;
11771;SDS011;12556;55.748;13.194;2023-04-06T03:39:18;4.70;;;3.40;;
11771;SDS011;12556;55.748;13.194;2023-04-06T03:41:47;7.67;;;3.60;;
11771;SDS011;12556;55.748;13.194;2023-04-06T03:44:14;4.83;;;3.20;;
11771;SDS011;12556;55.748;13.194;2023-04-06T03:46:41;8.00;;;3.20;;
11771;SDS011;12556;55.748;13.194;2023-04-06T03:49:08;6.70;;;3.23;;
11771;SDS011;12556;55.748;13.194;2023-04-06T03:51:36;4.17;;;2.90;;
11771;SDS011;12556;55.748;13.194;2023-04-06T03:54:03;3.57;;;2.90;;
11771;SDS011;12556;55.748;13.194;2023-04-06T03:56:30;4.67;;;2.97;;
11771;SDS011;12556;55.748;13.194;2023-04-06T03:58:58;6.60;;;3.53;;
11771;SDS011;12556;55.748;13.194;2023-04-06T04:01:25;5.33;;;3.40;;
11771;SDS011;12556;55.748;13.194;2023-04-06T04:03:53;6.33;;;3.00;;
11771;SDS011;12556;55.748;13.194;2023-04-06T04:06:19;4.27;;;2.83;;
11771;SDS011;12556;55.748;13.194;2023-04-06T04:08:46;4.80;;;2.80;;
11771;SDS011;12556;55.748;13.194;2023-04-06T04:11:13;5.07;;;3.87;;
11771;SDS011;12556;55.748;13.194;2023-04-06T04:13:41;4.47;;;2.97;;
11771;SDS011;12556;55.748;13.194;2023-04-06T04:16:09;5.00;;;2.90;;
11771;SDS011;12556;55.748;13.194;2023-04-06T04:18:36;3.77;;;2.60;;
11771;SDS011;12556;55.748;13.194;2023-04-06T04:21:03;3.17;;;2.57;;
11771;SDS011;12556;55.748;13.194;2023-04-06T04:23:30;4.77;;;3.00;;
11771;SDS011;12556;55.748;13.194;2023-04-06T04:25:57;4.97;;;2.53;;
11771;SDS011;12556;55.748;13.194;2023-04-06T04:28:24;7.10;;;3.27;;
11771;SDS011;12556;55.748;13.194;2023-04-06T04:30:51;5.83;;;3.00;;
11771;SDS011;12556;55.748;13.194;2023-04-06T04:33:19;3.70;;;3.00;;
11771;SDS011;12556;55.748;13.194;2023-04-06T04:35:46;4.37;;;3.00;;
11771;SDS011;12556;55.748;13.194;2023-04-06T04:38:13;6.90;;;2.63;;
11771;SDS011;12556;55.748;13.194;2023-04-06T04:40:40;5.03;;;3.00;;
11771;SDS011;12556;55.748;13.194;2023-04-06T04:43:06;3.93;;;2.80;;
11771;SDS011;12556;55.748;13.194;2023-04-06T04:45:33;3.90;;;2.47;;
11771;SDS011;12556;55.748;13.194;2023-04-06T04:48:01;4.37;;;2.83;;
11771;SDS011;12556;55.748;13.194;2023-04-06T04:50:31;4.03;;;2.50;;
11771;SDS011;12556;55.748;13.194;2023-04-06T04:52:58;3.90;;;2.93;;
11771;SDS011;12556;55.748;13.194;2023-04-06T04:55:25;2.53;;;2.30;;
11771;SDS011;12556;55.748;13.194;2023-04-06T04:57:52;5.67;;;2.60;;
11771;SDS011;12556;55.748;13.194;2023-04-06T05:00:19;4.13;;;2.43;;
11771;SDS011;12556;55.748;13.194;2023-04-06T05:02:46;3.37;;;2.80;;
11771;SDS011;12556;55.748;13.194;2023-04-06T05:05:13;5.43;;;2.67;;
11771;SDS011;12556;55.748;13.194;2023-04-06T05:07:41;3.37;;;2.70;;
11771;SDS011;12556;55.748;13.194;2023-04-06T05:10:09;4.43;;;2.90;;
11771;SDS011;12556;55.748;13.194;2023-04-06T05:12:36;4.60;;;3.20;;
11771;SDS011;12556;55.748;13.194;2023-04-06T05:15:04;4.73;;;2.43;;
11771;SDS011;12556;55.748;13.194;2023-04-06T05:17:31;4.10;;;2.43;;
11771;SDS011;12556;55.748;13.194;2023-04-06T05:19:59;4.70;;;2.70;;
11771;SDS011;12556;55.748;13.194;2023-04-06T05:22:26;6.27;;;2.73;;
11771;SDS011;12556;55.748;13.194;2023-04-06T05:24:54;3.30;;;2.57;;
11771;SDS011;12556;55.748;13.194;2023-04-06T05:27:21;3.40;;;2.30;;
11771;SDS011;12556;55.748;13.194;2023-04-06T05:29:48;5.37;;;3.20;;
11771;SDS011;12556;55.748;13.194;2023-04-06T05:32:15;3.07;;;2.47;;
11771;SDS011;12556;55.748;13.194;2023-04-06T05:34:46;3.27;;;2.47;;
11771;SDS011;12556;55.748;13.194;2023-04-06T05:37:14;5.00;;;2.97;;
11771;SDS011;12556;55.748;13.194;2023-04-06T05:39:41;3.00;;;2.37;;
11771;SDS011;12556;55.748;13.194;2023-04-06T05:42:09;3.57;;;2.30;;
11771;SDS011;12556;55.748;13.194;2023-04-06T05:44:36;2.47;;;2.27;;
11771;SDS011;12556;55.748;13.194;2023-04-06T05:47:03;3.90;;;2.23;;
11771;SDS011;12556;55.748;13.194;2023-04-06T05:49:30;2.43;;;2.00;;
11771;SDS011;12556;55.748;13.194;2023-04-06T05:51:57;5.13;;;2.40;;
11771;SDS011;12556;55.748;13.194;2023-04-06T05:54:24;5.37;;;2.37;;
11771;SDS011;12556;55.748;13.194;2023-04-06T05:56:51;2.73;;;2.27;;
11771;SDS011;12556;55.748;13.194;2023-04-06T05:59:19;2.30;;;2.10;;
11771;SDS011;12556;55.748;13.194;2023-04-06T06:01:46;6.30;;;2.07;;
11771;SDS011;12556;55.748;13.194;2023-04-06T06:04:13;7.33;;;2.40;;
11771;SDS011;12556;55.748;13.194;2023-04-06T06:06:40;3.47;;;1.90;;
11771;SDS011;12556;55.748;13.194;2023-04-06T06:09:07;2.33;;;1.80;;
11771;SDS011;12556;55.748;13.194;2023-04-06T06:11:35;4.53;;;2.20;;
11771;SDS011;12556;55.748;13.194;2023-04-06T06:14:02;5.57;;;2.43;;
11771;SDS011;12556;55.748;13.194;2023-04-06T06:16:31;3.70;;;2.27;;
11771;SDS011;12556;55.748;13.194;2023-04-06T06:18:57;5.07;;;2.00;;
11771;SDS011;12556;55.748;13.194;2023-04-06T06:21:24;5.43;;;2.13;;
11771;SDS011;12556;55.748;13.194;2023-04-06T06:23:51;4.50;;;2.10;;
11771;SDS011;12556;55.748;13.194;2023-04-06T06:26:19;8.50;;;2.50;;
11771;SDS011;12556;55.748;13.194;2023-04-06T06:28:46;4.93;;;2.30;;
11771;SDS011;12556;55.748;13.194;2023-04-06T06:31:13;6.33;;;2.37;;
11771;SDS011;12556;55.748;13.194;2023-04-06T06:33:42;4.73;;;2.17;;
11771;SDS011;12556;55.748;13.194;2023-04-06T06:36:09;4.40;;;2.37;;
11771;SDS011;12556;55.748;13.194;2023-04-06T06:38:36;1.70;;;1.60;;
11771;SDS011;12556;55.748;13.194;2023-04-06T06:41:03;4.03;;;1.70;;
11771;SDS011;12556;55.748;13.194;2023-04-06T06:43:30;2.77;;;2.03;;
11771;SDS011;12556;55.748;13.194;2023-04-06T06:45:57;3.53;;;2.00;;
11771;SDS011;12556;55.748;13.194;2023-04-06T06:48:24;3.13;;;2.40;;
11771;SDS011;12556;55.748;13.194;2023-04-06T06:50:53;2.87;;;1.70;;
11771;SDS011;12556;55.748;13.194;2023-04-06T06:53:20;2.33;;;1.93;;
11771;SDS011;12556;55.748;13.194;2023-04-06T06:55:47;3.73;;;2.10;;
11771;SDS011;12556;55.748;13.194;2023-04-06T06:58:14;2.47;;;1.80;;
11771;SDS011;12556;55.748;13.194;2023-04-06T07:00:41;3.20;;;2.20;;
11771;SDS011;12556;55.748;13.194;2023-04-06T07:03:08;3.60;;;2.00;;
11771;SDS011;12556;55.748;13.194;2023-04-06T07:05:35;2.47;;;2.10;;
11771;SDS011;12556;55.748;13.194;2023-04-06T07:08:04;5.37;;;2.30;;
11771;SDS011;12556;55.748;13.194;2023-04-06T07:10:31;5.90;;;2.10;;
11771;SDS011;12556;55.748;13.194;2023-04-06T07:12:58;5.50;;;2.00;;
11771;SDS011;12556;55.748;13.194;2023-04-06T07:15:25;2.77;;;1.80;;
11771;SDS011;12556;55.748;13.194;2023-04-06T07:17:52;2.60;;;1.97;;
11771;SDS011;12556;55.748;13.194;2023-04-06T07:20:19;3.90;;;2.20;;
11771;SDS011;12556;55.748;13.194;2023-04-06T07:22:46;4.60;;;2.13;;
11771;SDS011;12556;55.748;13.194;2023-04-06T07:25:15;3.50;;;2.23;;
11771;SDS011;12556;55.748;13.194;2023-04-06T07:27:42;4.70;;;2.30;;
11771;SDS011;12556;55.748;13.194;2023-04-06T07:30:09;2.67;;;2.00;;
11771;SDS011;12556;55.748;13.194;2023-04-06T07:32:36;3.00;;;2.33;;
11771;SDS011;12556;55.748;13.194;2023-04-06T07:35:03;4.63;;;2.53;;
11771;SDS011;12556;55.748;13.194;2023-04-06T07:37:30;4.40;;;2.40;;
11771;SDS011;12556;55.748;13.194;2023-04-06T07:39:57;2.90;;;2.30;;
11771;SDS011;12556;55.748;13.194;2023-04-06T07:42:26;2.53;;;1.90;;
11771;SDS011;12556;55.748;13.194;2023-04-06T07:44:53;3.27;;;1.70;;
11771;SDS011;12556;55.748;13.194;2023-04-06T07:47:20;4.20;;;2.23;;
11771;SDS011;12556;55.748;13.194;2023-04-06T07:49:47;4.20;;;2.00;;
11771;SDS011;12556;55.748;13.194;2023-04-06T07:52:13;3.10;;;1.90;;
11771;SDS011;12556;55.748;13.194;2023-04-06T07:54:40;3.50;;;1.90;;
11771;SDS011;12556;55.748;13.194;2023-04-06T07:57:07;2.70;;;1.90;;
11771;SDS011;12556;55.748;13.194;2023-04-06T07:59:36;2.13;;;1.50;;
11771;SDS011;12556;55.748;13.194;2023-04-06T08:02:03;2.70;;;2.27;;
11771;SDS011;12556;55.748;13.194;2023-04-06T08:04:30;3.10;;;1.80;;
11771;SDS011;12556;55.748;13.194;2023-04-06T08:06:57;2.67;;;1.57;;
11771;SDS011;12556;55.748;13.194;2023-04-06T08:09:24;1.87;;;1.63;;
11771;SDS011;12556;55.748;13.194;2023-04-06T08:11:51;3.50;;;1.83;;
11771;SDS011;12556;55.748;13.194;2023-04-06T08:14:18;5.00;;;2.07;;
11771;SDS011;12556;55.748;13.194;2023-04-06T08:16:47;2.40;;;1.70;;
11771;SDS011;12556;55.748;13.194;2023-04-06T08:19:14;1.93;;;1.40;;
11771;SDS011;12556;55.748;13.194;2023-04-06T08:21:42;4.43;;;1.97;;
11771;SDS011;12556;55.748;13.194;2023-04-06T08:24:09;2.43;;;1.60;;
11771;SDS011;12556;55.748;13.194;2023-04-06T08:26:36;2.03;;;1.60;;
11771;SDS011;12556;55.748;13.194;2023-04-06T08:29:03;2.53;;;1.47;;
11771;SDS011;12556;55.748;13.194;2023-04-06T08:31:32;2.53;;;1.93;;
11771;SDS011;12556;55.748;13.194;2023-04-06T08:34:00;1.93;;;1.20;;
11771;SDS011;12556;55.748;13.194;2023-04-06T08:36:28;2.43;;;1.50;;
11771;SDS011;12556;55.748;13.194;2023-04-06T08:38:55;5.23;;;1.70;;
11771;SDS011;12556;55.748;13.194;2023-04-06T08:41:22;2.40;;;1.73;;
11771;SDS011;12556;55.748;13.194;2023-04-06T08:43:49;2.80;;;1.93;;
11771;SDS011;12556;55.748;13.194;2023-04-06T08:46:22;2.93;;;1.43;;
11771;SDS011;12556;55.748;13.194;2023-04-06T08:48:54;2.07;;;1.87;;
11771;SDS011;12556;55.748;13.194;2023-04-06T08:51:23;2.37;;;1.87;;
11771;SDS011;12556;55.748;13.194;2023-04-06T08:53:51;3.73;;;1.90;;
11771;SDS011;12556;55.748;13.194;2023-04-06T08:56:21;2.57;;;1.67;;
11771;SDS011;12556;55.748;13.194;2023-04-06T08:58:48;4.30;;;1.83;;
11771;SDS011;12556;55.748;13.194;2023-04-06T09:01:16;4.37;;;2.37;;
11771;SDS011;12556;55.748;13.194;2023-04-06T09:03:46;3.67;;;2.13;;
11771;SDS011;12556;55.748;13.194;2023-04-06T09:06:15;3.50;;;2.00;;
11771;SDS011;12556;55.748;13.194;2023-04-06T09:08:44;4.53;;;1.97;;
11771;SDS011;12556;55.748;13.194;2023-04-06T09:11:11;3.37;;;2.20;;
11771;SDS011;12556;55.748;13.194;2023-04-06T09:13:44;3.40;;;2.17;;
11771;SDS011;12556;55.748;13.194;2023-04-06T09:16:12;5.13;;;2.00;;
11771;SDS011;12556;55.748;13.194;2023-04-06T09:18:39;2.30;;;1.63;;
11771;SDS011;12556;55.748;13.194;2023-04-06T09:21:07;3.27;;;1.70;;
11771;SDS011;12556;55.748;13.194;2023-04-06T09:23:34;1.73;;;1.60;;
11771;SDS011;12556;55.748;13.194;2023-04-06T09:26:06;2.53;;;2.03;;
11771;SDS011;12556;55.748;13.194;2023-04-06T09:28:41;2.43;;;1.70;;
11771;SDS011;12556;55.748;13.194;2023-04-06T09:31:09;2.80;;;1.87;;
11771;SDS011;12556;55.748;13.194;2023-04-06T09:33:37;2.47;;;1.83;;
11771;SDS011;12556;55.748;13.194;2023-04-06T09:36:05;3.47;;;1.93;;
11771;SDS011;12556;55.748;13.194;2023-04-06T09:38:35;3.03;;;1.73;;
11771;SDS011;12556;55.748;13.194;2023-04-06T09:41:03;2.13;;;1.67;;
11771;SDS011;12556;55.748;13.194;2023-04-06T09:43:31;2.97;;;2.07;;
11771;SDS011;12556;55.748;13.194;2023-04-06T09:45:58;4.63;;;2.03;;
11771;SDS011;12556;55.748;13.194;2023-04-06T09:48:28;3.23;;;1.73;;
11771;SDS011;12556;55.748;13.194;2023-04-06T09:50:59;3.27;;;1.97;;
11771;SDS011;12556;55.748;13.194;2023-04-06T09:53:29;6.27;;;2.10;;
11771;SDS011;12556;55.748;13.194;2023-04-06T09:56:00;4.20;;;2.00;;
11771;SDS011;12556;55.748;13.194;2023-04-06T09:58:33;2.63;;;2.03;;
11771;SDS011;12556;55.748;13.194;2023-04-06T10:01:03;5.47;;;2.17;;
11771;SDS011;12556;55.748;13.194;2023-04-06T10:03:37;3.00;;;2.00;;
11771;SDS011;12556;55.748;13.194;2023-04-06T10:06:11;2.90;;;2.30;;
11771;SDS011;12556;55.748;13.194;2023-04-06T10:08:40;3.90;;;2.30;;
11771;SDS011;12556;55.748;13.194;2023-04-06T10:11:11;7.13;;;2.80;;
11771;SDS011;12556;55.748;13.194;2023-04-06T10:13:40;4.63;;;2.50;;
11771;SDS011;12556;55.748;13.194;2023-04-06T10:16:08;4.13;;;2.57;;
11771;SDS011;12556;55.748;13.194;2023-04-06T10:18:36;3.33;;;2.30;;
11771;SDS011;12556;55.748;13.194;2023-04-06T10:21:06;3.00;;;2.53;;
11771;SDS011;12556;55.748;13.194;2023-04-06T10:23:35;3.50;;;2.63;;
11771;SDS011;12556;55.748;13.194;2023-04-06T10:26:11;4.27;;;2.30;;
11771;SDS011;12556;55.748;13.194;2023-04-06T10:28:41;3.30;;;2.33;;
11771;SDS011;12556;55.748;13.194;2023-04-06T10:31:09;3.73;;;2.60;;
11771;SDS011;12556;55.748;13.194;2023-04-06T10:33:36;4.43;;;3.03;;
11771;SDS011;12556;55.748;13.194;2023-04-06T10:36:10;5.03;;;3.10;;
11771;SDS011;12556;55.748;13.194;2023-04-06T10:38:38;4.17;;;3.13;;
11771;SDS011;12556;55.748;13.194;2023-04-06T10:41:06;4.23;;;2.83;;
11771;SDS011;12556;55.748;13.194;2023-04-06T10:43:35;4.77;;;3.23;;
11771;SDS011;12556;55.748;13.194;2023-04-06T10:46:05;6.30;;;2.93;;
11771;SDS011;12556;55.748;13.194;2023-04-06T10:48:36;3.57;;;2.77;;
11771;SDS011;12556;55.748;13.194;2023-04-06T10:51:06;3.73;;;2.73;;
11771;SDS011;12556;55.748;13.194;2023-04-06T10:53:35;4.73;;;2.97;;
11771;SDS011;12556;55.748;13.194;2023-04-06T10:56:02;2.70;;;2.50;;
11771;SDS011;12556;55.748;13.194;2023-04-06T10:58:35;5.77;;;2.87;;
11771;SDS011;12556;55.748;13.194;2023-04-06T11:01:06;5.17;;;2.70;;
11771;SDS011;12556;55.748;13.194;2023-04-06T11:03:41;3.93;;;2.43;;
11771;SDS011;12556;55.748;13.194;2023-04-06T11:06:09;10.83;;;2.70;;
11771;SDS011;12556;55.748;13.194;2023-04-06T11:08:37;4.50;;;3.10;;
11771;SDS011;12556;55.748;13.194;2023-04-06T11:11:05;3.73;;;2.83;;
11771;SDS011;12556;55.748;13.194;2023-04-06T11:13:37;4.10;;;2.93;;
11771;SDS011;12556;55.748;13.194;2023-04-06T11:16:11;6.00;;;3.13;;
11771;SDS011;12556;55.748;13.194;2023-04-06T11:18:46;4.77;;;3.27;;
11771;SDS011;12556;55.748;13.194;2023-04-06T11:21:17;7.40;;;3.67;;
11771;SDS011;12556;55.748;13.194;2023-04-06T11:23:45;6.47;;;3.27;;
11771;SDS011;12556;55.748;13.194;2023-04-06T11:26:12;4.03;;;3.63;;
11771;SDS011;12556;55.748;13.194;2023-04-06T11:28:39;5.40;;;3.73;;
11771;SDS011;12556;55.748;13.194;2023-04-06T11:31:08;4.70;;;3.70;;
11771;SDS011;12556;55.748;13.194;2023-04-06T11:33:36;4.83;;;4.13;;
11771;SDS011;12556;55.748;13.194;2023-04-06T11:36:03;6.57;;;3.90;;
11771;SDS011;12556;55.748;13.194;2023-04-06T11:38:31;4.60;;;3.20;;
11771;SDS011;12556;55.748;13.194;2023-04-06T11:40:58;4.07;;;3.37;;
11771;SDS011;12556;55.748;13.194;2023-04-06T11:43:27;5.83;;;3.33;;
11771;SDS011;12556;55.748;13.194;2023-04-06T11:45:59;3.40;;;3.10;;
11771;SDS011;12556;55.748;13.194;2023-04-06T11:48:29;5.63;;;3.60;;
11771;SDS011;12556;55.748;13.194;2023-04-06T11:50:56;4.47;;;3.73;;
11771;SDS011;12556;55.748;13.194;2023-04-06T11:53:25;7.50;;;4.00;;
11771;SDS011;12556;55.748;13.194;2023-04-06T11:55:53;6.57;;;3.87;;
11771;SDS011;12556;55.748;13.194;2023-04-06T11:58:20;5.43;;;4.00;;
11771;SDS011;12556;55.748;13.194;2023-04-06T12:00:46;4.93;;;4.43;;
11771;SDS011;12556;55.748;13.194;2023-04-06T12:03:13;4.93;;;4.40;;
11771;SDS011;12556;55.748;13.194;2023-04-06T12:05:43;5.53;;;4.40;;
11771;SDS011;12556;55.748;13.194;2023-04-06T12:08:10;5.77;;;4.10;;
11771;SDS011;12556;55.748;13.194;2023-04-06T12:10:37;4.70;;;4.20;;
11771;SDS011;12556;55.748;13.194;2023-04-06T12:13:04;5.17;;;4.50;;
11771;SDS011;12556;55.748;13.194;2023-04-06T12:15:31;6.23;;;4.30;;
11771;SDS011;12556;55.748;13.194;2023-04-06T12:17:58;7.40;;;4.73;;
11771;SDS011;12556;55.748;13.194;2023-04-06T12:20:25;6.20;;;4.70;;
11771;SDS011;12556;55.748;13.194;2023-04-06T12:22:53;5.87;;;4.80;;
11771;SDS011;12556;55.748;13.194;2023-04-06T12:25:20;7.20;;;4.77;;
11771;SDS011;12556;55.748;13.194;2023-04-06T12:27:47;6.03;;;5.27;;
11771;SDS011;12556;55.748;13.194;2023-04-06T12:30:15;7.57;;;4.70;;
11771;SDS011;12556;55.748;13.194;2023-04-06T12:32:42;4.70;;;4.30;;
11771;SDS011;12556;55.748;13.194;2023-04-06T12:35:09;7.70;;;4.23;;
11771;SDS011;12556;55.748;13.194;2023-04-06T12:37:40;4.87;;;4.23;;
11771;SDS011;12556;55.748;13.194;2023-04-06T12:40:09;4.87;;;4.40;;
11771;SDS011;12556;55.748;13.194;2023-04-06T12:42:38;6.87;;;4.73;;
11771;SDS011;12556;55.748;13.194;2023-04-06T12:45:07;6.33;;;4.83;;
11771;SDS011;12556;55.748;13.194;2023-04-06T12:47:34;8.43;;;5.47;;
11771;SDS011;12556;55.748;13.194;2023-04-06T12:50:02;6.20;;;4.03;;
11771;SDS011;12556;55.748;13.194;2023-04-06T12:52:30;5.00;;;4.00;;
11771;SDS011;12556;55.748;13.194;2023-04-06T12:55:00;7.17;;;4.53;;
11771;SDS011;12556;55.748;13.194;2023-04-06T12:57:28;5.07;;;4.03;;
11771;SDS011;12556;55.748;13.194;2023-04-06T12:59:55;6.17;;;4.43;;
11771;SDS011;12556;55.748;13.194;2023-04-06T13:02:23;5.37;;;4.43;;
11771;SDS011;12556;55.748;13.194;2023-04-06T13:04:51;4.87;;;4.37;;
11771;SDS011;12556;55.748;13.194;2023-04-06T13:07:18;7.53;;;4.80;;
11771;SDS011;12556;55.748;13.194;2023-04-06T13:09:45;6.37;;;5.00;;
11771;SDS011;12556;55.748;13.194;2023-04-06T13:12:12;6.73;;;5.37;;
11771;SDS011;12556;55.748;13.194;2023-04-06T13:14:41;5.43;;;4.70;;
11771;SDS011;12556;55.748;13.194;2023-04-06T13:17:08;5.03;;;4.53;;
11771;SDS011;12556;55.748;13.194;2023-04-06T13:19:36;5.90;;;5.30;;
11771;SDS011;12556;55.748;13.194;2023-04-06T13:22:02;6.10;;;4.73;;
11771;SDS011;12556;55.748;13.194;2023-04-06T13:24:30;5.97;;;4.73;;
11771;SDS011;12556;55.748;13.194;2023-04-06T13:26:56;9.40;;;5.30;;
11771;SDS011;12556;55.748;13.194;2023-04-06T13:29:23;5.73;;;4.77;;
11771;SDS011;12556;55.748;13.194;2023-04-06T13:31:52;7.60;;;4.90;;
11771;SDS011;12556;55.748;13.194;2023-04-06T13:34:19;5.50;;;5.00;;
11771;SDS011;12556;55.748;13.194;2023-04-06T13:36:46;5.90;;;5.17;;
11771;SDS011;12556;55.748;13.194;2023-04-06T13:39:13;5.60;;;4.80;;
11771;SDS011;12556;55.748;13.194;2023-04-06T13:41:40;5.80;;;4.90;;
11771;SDS011;12556;55.748;13.194;2023-04-06T13:44:07;7.60;;;4.70;;
11771;SDS011;12556;55.748;13.194;2023-04-06T13:46:34;6.17;;;4.73;;
11771;SDS011;12556;55.748;13.194;2023-04-06T13:49:02;9.17;;;5.40;;
11771;SDS011;12556;55.748;13.194;2023-04-06T13:51:29;6.53;;;4.33;;
11771;SDS011;12556;55.748;13.194;2023-04-06T13:53:57;5.00;;;4.43;;
11771;SDS011;12556;55.748;13.194;2023-04-06T13:56:24;6.10;;;4.53;;
11771;SDS011;12556;55.748;13.194;2023-04-06T13:58:53;6.27;;;4.57;;
11771;SDS011;12556;55.748;13.194;2023-04-06T14:01:21;5.07;;;4.60;;
11771;SDS011;12556;55.748;13.194;2023-04-06T14:03:48;5.70;;;5.03;;
11771;SDS011;12556;55.748;13.194;2023-04-06T14:06:16;6.77;;;4.80;;
11771;SDS011;12556;55.748;13.194;2023-04-06T14:08:43;7.23;;;4.73;;
11771;SDS011;12556;55.748;13.194;2023-04-06T14:11:10;6.30;;;5.17;;
11771;SDS011;12556;55.748;13.194;2023-04-06T14:13:38;5.60;;;4.80;;
11771;SDS011;12556;55.748;13.194;2023-04-06T14:16:05;8.90;;;5.03;;
11771;SDS011;12556;55.748;13.194;2023-04-06T14:18:32;5.93;;;4.77;;
11771;SDS011;12556;55.748;13.194;2023-04-06T14:20:59;4.80;;;4.30;;
11771;SDS011;12556;55.748;13.194;2023-04-06T14:23:28;6.23;;;4.63;;
11771;SDS011;12556;55.748;13.194;2023-04-06T14:26:05;5.87;;;4.70;;
11771;SDS011;12556;55.748;13.194;2023-04-06T14:28:34;6.80;;;5.00;;
11771;SDS011;12556;55.748;13.194;2023-04-06T14:31:02;6.80;;;4.90;;
11771;SDS011;12556;55.748;13.194;2023-04-06T14:33:36;7.33;;;5.00;;
11771;SDS011;12556;55.748;13.194;2023-04-06T14:36:03;6.50;;;4.83;;